Time;durP1;ratioP1;P1;durP2;ratioP2;P2;SDS_P1;SDS_P2;PMS_P1;PMS_P2;Temp;Humidity;BMP_temperature;BMP_pressure;BME280_temperature;BME280_humidity;BME280_pressure;Samples;Min_cycle;Max_cycle;Signal;HPM_P1;HPM_P2
2024/04/05 00:00:40;;;;;;;0.40;0.40;;;11.40;99.90;;;;;;4298853;33;20088;-86
2024/04/05 00:03:07;;;;;;;0.40;0.40;;;11.50;99.90;;;;;;4299138;33;20136;-86
2024/04/05 00:05:33;;;;;;;0.40;0.40;;;11.50;99.90;;;;;;4298446;33;20580;-86
2024/04/05 00:07:58;;;;;;;0.50;0.50;;;11.50;99.90;;;;;;4298657;33;20071;-86
2024/04/05 00:10:24;;;;;;;0.82;0.82;;;11.50;99.90;;;;;;4299736;33;20096;-85
2024/04/05 00:12:50;;;;;;;0.40;0.40;;;11.50;99.90;;;;;;4299295;33;20075;-86
2024/04/05 00:15:15;;;;;;;0.43;0.43;;;11.60;99.90;;;;;;4298438;33;20095;-86
2024/04/05 00:17:41;;;;;;;1.08;0.98;;;11.60;99.90;;;;;;4299237;33;20430;-84
2024/04/05 00:20:07;;;;;;;0.30;0.30;;;11.50;99.90;;;;;;4299674;33;20184;-86
2024/04/05 00:22:32;;;;;;;0.22;0.22;;;11.50;99.90;;;;;;4297547;33;20081;-86
2024/04/05 00:24:58;;;;;;;0.40;0.40;;;11.60;99.90;;;;;;4298974;33;20072;-85
2024/04/05 00:27:23;;;;;;;0.40;0.40;;;11.60;99.90;;;;;;4302086;33;20606;-87
2024/04/05 00:29:49;;;;;;;0.40;0.40;;;11.60;99.90;;;;;;4314006;33;20140;-85
2024/04/05 00:32:15;;;;;;;0.35;0.35;;;11.60;99.90;;;;;;4316717;33;20085;-85
2024/04/05 00:34:41;;;;;;;7.87;1.10;;;11.60;99.90;;;;;;4316243;33;20068;-86
2024/04/05 00:37:08;;;;;;;0.40;0.40;;;11.60;99.90;;;;;;4315614;33;20128;-86
2024/04/05 00:39:33;;;;;;;0.60;0.60;;;11.60;99.90;;;;;;4316308;33;20072;-85
2024/04/05 00:41:59;;;;;;;0.37;0.37;;;11.60;99.90;;;;;;4312006;33;20088;-84
2024/04/05 00:44:24;;;;;;;0.32;0.32;;;11.60;99.90;;;;;;4301547;33;20468;-86
2024/04/05 00:46:50;;;;;;;0.77;0.77;;;11.60;99.90;;;;;;4300108;33;20072;-87
2024/04/05 00:49:17;;;;;;;0.30;0.30;;;11.60;99.90;;;;;;4293411;33;20059;-87
2024/04/05 00:51:42;;;;;;;0.40;0.40;;;11.60;99.90;;;;;;4295087;33;20068;-87
2024/04/05 00:54:08;;;;;;;0.40;0.40;;;11.50;99.90;;;;;;4301112;33;20097;-86
2024/04/05 00:56:36;;;;;;;1.02;1.00;;;11.60;99.90;;;;;;4298238;33;20064;-87
2024/04/05 00:59:03;;;;;;;0.30;0.30;;;11.60;99.90;;;;;;4300781;33;20417;-87
2024/04/05 01:01:29;;;;;;;0.30;0.30;;;11.50;99.90;;;;;;4300685;33;20080;-86
2024/04/05 01:03:55;;;;;;;0.77;0.77;;;11.60;99.90;;;;;;4300371;33;20080;-85
2024/04/05 01:06:21;;;;;;;0.30;0.30;;;11.50;99.90;;;;;;4298422;33;20151;-85
2024/04/05 01:08:47;;;;;;;0.30;0.30;;;11.50;99.90;;;;;;4299165;33;20068;-85
2024/04/05 01:11:13;;;;;;;0.50;0.50;;;11.50;99.90;;;;;;4297395;33;20129;-85
2024/04/05 01:13:39;;;;;;;0.80;0.80;;;11.50;99.90;;;;;;4298598;33;20531;-85
2024/04/05 01:16:06;;;;;;;0.30;0.30;;;11.50;99.90;;;;;;4299395;33;20060;-85
2024/04/05 01:18:32;;;;;;;0.40;0.40;;;11.50;99.90;;;;;;4295586;33;20125;-84
2024/04/05 01:21:01;;;;;;;1.20;0.55;;;11.50;99.90;;;;;;4298530;33;20073;-86
2024/04/05 01:23:29;;;;;;;0.57;0.57;;;11.50;99.90;;;;;;4299521;33;20531;-86
2024/04/05 01:25:56;;;;;;;0.90;0.85;;;11.40;99.90;;;;;;4298829;33;20480;-85
2024/04/05 01:28:22;;;;;;;0.40;0.40;;;11.50;99.90;;;;;;4297112;33;20129;-85
2024/04/05 01:30:47;;;;;;;0.40;0.40;;;11.40;99.90;;;;;;4297655;33;20089;-85
2024/04/05 01:33:13;;;;;;;1.35;1.25;;;11.40;99.90;;;;;;4300773;33;20543;-85
2024/04/05 01:35:39;;;;;;;0.40;0.40;;;11.40;99.90;;;;;;4298823;33;20080;-86
2024/04/05 01:38:04;;;;;;;0.30;0.30;;;11.40;99.90;;;;;;4298351;33;20084;-85
2024/04/05 01:40:30;;;;;;;0.40;0.40;;;11.40;99.90;;;;;;4298618;33;20104;-86
2024/04/05 01:42:56;;;;;;;0.47;0.47;;;11.50;99.90;;;;;;4299237;33;20080;-84
2024/04/05 01:45:21;;;;;;;0.68;0.68;;;11.40;99.90;;;;;;4297712;33;20076;-86
2024/04/05 01:47:47;;;;;;;0.40;0.40;;;11.40;99.90;;;;;;4298075;33;20507;-85
2024/04/05 01:50:15;;;;;;;0.40;0.40;;;11.40;99.90;;;;;;4295853;33;20075;-86
2024/04/05 01:52:40;;;;;;;2.03;0.77;;;11.40;99.90;;;;;;4300282;33;20531;-87
2024/04/05 01:55:06;;;;;;;0.35;0.35;;;11.40;99.90;;;;;;4299040;33;20080;-87
2024/04/05 01:57:36;;;;;;;0.40;0.40;;;11.40;99.90;;;;;;4297205;33;20543;-87
2024/04/05 02:00:05;;;;;;;0.20;0.20;;;11.40;99.90;;;;;;4300373;33;20144;-86
2024/04/05 02:02:31;;;;;;;0.43;0.43;;;11.40;99.90;;;;;;4298721;33;20148;-88
2024/04/05 02:04:56;;;;;;;0.50;0.50;;;11.40;99.90;;;;;;4298702;33;20133;-85
2024/04/05 02:07:23;;;;;;;0.70;0.57;;;11.40;99.90;;;;;;4302384;33;20149;-85
2024/04/05 02:09:49;;;;;;;0.35;0.35;;;11.40;99.90;;;;;;4301080;33;20085;-85
2024/04/05 02:12:17;;;;;;;0.30;0.30;;;11.30;99.90;;;;;;4300577;33;20132;-85
2024/04/05 02:14:42;;;;;;;1.45;0.50;;;11.30;99.90;;;;;;4298520;33;20587;-85
2024/04/05 02:17:08;;;;;;;0.30;0.30;;;11.30;99.90;;;;;;4301704;33;20119;-85
2024/04/05 02:19:35;;;;;;;0.77;0.68;;;11.30;99.90;;;;;;4301452;33;20083;-85
2024/04/05 02:22:01;;;;;;;0.75;0.50;;;11.30;99.90;;;;;;4301250;33;20076;-85
2024/04/05 02:24:26;;;;;;;0.40;0.40;;;11.30;99.90;;;;;;4299322;33;20092;-86
2024/04/05 02:26:52;;;;;;;0.32;0.32;;;11.30;99.90;;;;;;4301668;33;20519;-86
2024/04/05 02:29:18;;;;;;;5.37;0.75;;;11.30;99.90;;;;;;4300824;33;20131;-86
2024/04/05 02:31:45;;;;;;;0.30;0.30;;;11.30;99.90;;;;;;4303369;33;20076;-85
2024/04/05 02:34:10;;;;;;;0.37;0.37;;;11.30;99.90;;;;;;4299027;33;20072;-86
2024/04/05 02:36:36;;;;;;;0.30;0.30;;;11.30;99.90;;;;;;4300632;33;20088;-85
2024/04/05 02:39:04;;;;;;;0.50;0.50;;;11.30;99.90;;;;;;4301197;33;20088;-85
2024/04/05 02:41:30;;;;;;;4.45;1.48;;;11.30;99.90;;;;;;4299845;33;20477;-85
2024/04/05 02:43:56;;;;;;;0.57;0.57;;;11.30;99.90;;;;;;4300373;33;20080;-85
2024/04/05 02:46:21;;;;;;;1.87;0.75;;;11.30;99.90;;;;;;4299038;33;20083;-85
2024/04/05 02:48:47;;;;;;;0.40;0.40;;;11.30;99.90;;;;;;4302205;33;20079;-85
2024/04/05 02:51:12;;;;;;;1.65;1.00;;;11.30;99.90;;;;;;4300170;33;20073;-85
2024/04/05 02:53:38;;;;;;;0.70;0.70;;;11.30;99.90;;;;;;4300061;33;20088;-85
2024/04/05 02:56:04;;;;;;;0.30;0.30;;;11.20;99.90;;;;;;4300039;33;20125;-85
2024/04/05 02:58:29;;;;;;;0.40;0.40;;;11.20;99.90;;;;;;4300468;33;20125;-85
2024/04/05 03:00:55;;;;;;;0.62;0.40;;;11.20;99.90;;;;;;4298841;33;20449;-85
2024/04/05 03:03:22;;;;;;;25.67;0.60;;;11.20;99.90;;;;;;4298481;33;20082;-85
2024/04/05 03:05:48;;;;;;;4.87;0.70;;;11.20;99.90;;;;;;4299054;33;20172;-84
2024/04/05 03:08:15;;;;;;;0.30;0.30;;;11.20;99.90;;;;;;4297527;33;20150;-85
2024/04/05 03:10:46;;;;;;;1.00;0.85;;;11.20;99.90;;;;;;4298955;33;20072;-85
2024/04/05 03:13:12;;;;;;;0.25;0.25;;;11.10;99.90;;;;;;4299427;33;20089;-84
2024/04/05 03:15:37;;;;;;;0.30;0.30;;;11.10;99.90;;;;;;4298230;33;20563;-85
2024/04/05 03:18:03;;;;;;;0.40;0.40;;;11.10;99.90;;;;;;4298505;33;20141;-84
2024/04/05 03:20:30;;;;;;;2.25;1.40;;;11.10;99.90;;;;;;4298302;33;20084;-85
2024/04/05 03:22:55;;;;;;;0.40;0.40;;;11.10;99.90;;;;;;4303865;33;20543;-86
2024/04/05 03:25:21;;;;;;;0.30;0.30;;;11.10;99.90;;;;;;4298923;33;20088;-86
2024/04/05 03:27:47;;;;;;;0.30;0.30;;;11.10;99.90;;;;;;4296997;33;20092;-86
2024/04/05 03:30:13;;;;;;;0.88;0.70;;;11.10;99.90;;;;;;4299378;33;20084;-86
2024/04/05 03:32:38;;;;;;;0.30;0.30;;;11.10;99.90;;;;;;4300650;33;20081;-85
2024/04/05 03:35:06;;;;;;;0.65;0.60;;;11.10;99.90;;;;;;4298936;33;20515;-85
2024/04/05 03:37:32;;;;;;;0.28;0.28;;;11.10;99.90;;;;;;4298690;33;20072;-86
2024/04/05 03:39:57;;;;;;;0.32;0.32;;;11.10;99.90;;;;;;4296261;33;20093;-85
2024/04/05 03:42:23;;;;;;;1.55;0.90;;;11.10;99.90;;;;;;4298096;33;20520;-85
2024/04/05 03:44:48;;;;;;;0.30;0.30;;;11.00;99.90;;;;;;4296885;33;20096;-85
2024/04/05 03:47:14;;;;;;;0.30;0.30;;;11.10;99.90;;;;;;4299204;33;20069;-85
2024/04/05 03:49:41;;;;;;;1.55;0.68;;;11.10;99.90;;;;;;4299281;33;20079;-85
2024/04/05 03:52:06;;;;;;;0.40;0.40;;;11.10;99.90;;;;;;4300713;33;20064;-86
2024/04/05 03:54:32;;;;;;;0.40;0.40;;;11.10;99.90;;;;;;4298238;33;20593;-86
2024/04/05 03:56:58;;;;;;;0.40;0.40;;;11.10;99.90;;;;;;4298974;33;20060;-85
2024/04/05 03:59:23;;;;;;;2.55;0.82;;;11.10;99.90;;;;;;4298377;33;20084;-85
2024/04/05 04:01:51;;;;;;;1.30;0.82;;;11.10;99.90;;;;;;4301370;33;20117;-85
2024/04/05 04:04:16;;;;;;;0.40;0.40;;;11.10;99.90;;;;;;4299137;33;20088;-85
2024/04/05 04:06:42;;;;;;;0.35;0.35;;;11.10;99.90;;;;;;4300238;33;20081;-85
2024/04/05 04:09:08;;;;;;;0.30;0.30;;;11.20;99.90;;;;;;4300229;33;20077;-85
2024/04/05 04:11:34;;;;;;;0.43;0.43;;;11.20;99.90;;;;;;4299880;33;20453;-85
2024/04/05 04:13:59;;;;;;;0.30;0.30;;;11.20;99.90;;;;;;4299177;33;20067;-85
2024/04/05 04:16:25;;;;;;;4.03;1.30;;;11.20;99.90;;;;;;4297055;33;20075;-85
2024/04/05 04:18:50;;;;;;;3.03;0.70;;;11.20;99.90;;;;;;4300272;33;20068;-85
2024/04/05 04:21:16;;;;;;;0.40;0.40;;;11.20;99.90;;;;;;4300197;33;20520;-85
2024/04/05 04:23:41;;;;;;;0.52;0.52;;;11.10;99.90;;;;;;4299560;33;20498;-86
2024/04/05 04:26:07;;;;;;;0.25;0.25;;;11.10;99.90;;;;;;4300198;33;20436;-86
2024/04/05 04:28:33;;;;;;;0.47;0.47;;;11.10;99.90;;;;;;4299316;33;20108;-85
2024/04/05 04:31:20;;;;;;;0.50;0.50;;;11.10;99.90;;;;;;4308614;33;20081;-85
2024/04/05 04:33:45;;;;;;;0.30;0.30;;;11.10;99.90;;;;;;4312200;33;20462;-85
2024/04/05 04:36:11;;;;;;;4.90;1.35;;;11.10;99.90;;;;;;4314917;33;20096;-85
2024/04/05 04:38:37;;;;;;;3.78;0.70;;;11.00;99.90;;;;;;4315055;33;20514;-85
2024/04/05 04:41:04;;;;;;;0.60;0.60;;;11.00;99.90;;;;;;4311870;33;20694;-85
2024/04/05 04:43:29;;;;;;;0.30;0.30;;;11.00;99.90;;;;;;4312131;33;20121;-86
2024/04/05 04:45:55;;;;;;;0.40;0.40;;;11.00;99.90;;;;;;4304934;33;20476;-85
2024/04/05 04:48:20;;;;;;;0.55;0.55;;;11.00;99.90;;;;;;4300956;33;20072;-85
2024/04/05 04:50:46;;;;;;;0.75;0.47;;;11.00;99.90;;;;;;4301979;33;20135;-86
2024/04/05 04:53:12;;;;;;;1.75;0.43;;;11.00;99.90;;;;;;4297945;33;20732;-86
2024/04/05 04:55:38;;;;;;;0.30;0.30;;;11.00;99.90;;;;;;4297481;33;20084;-85
2024/04/05 04:58:05;;;;;;;0.30;0.30;;;11.00;99.90;;;;;;4299258;33;20173;-85
2024/04/05 05:00:32;;;;;;;0.50;0.50;;;11.00;99.90;;;;;;4298752;33;20168;-85
2024/04/05 05:02:58;;;;;;;0.40;0.40;;;10.90;99.90;;;;;;4298878;33;20154;-85
2024/04/05 05:05:23;;;;;;;0.57;0.45;;;10.90;99.90;;;;;;4297215;33;20144;-85
2024/04/05 05:07:49;;;;;;;0.40;0.40;;;10.90;99.90;;;;;;4299736;33;20085;-85
2024/04/05 05:10:14;;;;;;;0.35;0.35;;;10.90;99.90;;;;;;4298305;33;20128;-85
2024/04/05 05:12:40;;;;;;;0.82;0.80;;;10.90;99.90;;;;;;4298615;33;20085;-85
2024/04/05 05:15:06;;;;;;;0.30;0.30;;;10.90;99.90;;;;;;4296990;33;20079;-85
2024/04/05 05:17:37;;;;;;;0.40;0.40;;;10.90;99.90;;;;;;4299009;33;20073;-85
2024/04/05 05:20:07;;;;;;;1.95;1.10;;;10.90;99.90;;;;;;4297284;33;20618;-85
2024/04/05 05:22:35;;;;;;;0.40;0.40;;;11.00;99.90;;;;;;4297767;33;20123;-85
2024/04/05 05:25:01;;;;;;;0.68;0.60;;;11.00;99.90;;;;;;4299109;33;20092;-86
2024/04/05 05:27:27;;;;;;;0.70;0.70;;;11.10;99.90;;;;;;4299430;33;20080;-85
2024/04/05 05:29:52;;;;;;;0.28;0.28;;;11.10;99.90;;;;;;4297184;33;20080;-85
2024/04/05 05:32:18;;;;;;;0.50;0.50;;;11.20;99.90;;;;;;4297251;33;20061;-85
2024/04/05 05:34:44;;;;;;;0.30;0.30;;;11.20;99.90;;;;;;4297598;33;20133;-85
2024/04/05 05:37:10;;;;;;;0.82;0.82;;;11.20;99.90;;;;;;4298998;33;20174;-85
2024/04/05 05:39:35;;;;;;;0.40;0.40;;;11.20;99.90;;;;;;4301163;33;20158;-85
2024/04/05 05:42:01;;;;;;;0.65;0.65;;;11.20;99.90;;;;;;4302406;33;20084;-85
2024/04/05 05:44:26;;;;;;;0.30;0.30;;;11.20;99.90;;;;;;4300450;33;20068;-85
2024/04/05 05:46:52;;;;;;;1.48;0.43;;;11.30;99.90;;;;;;4299195;33;20520;-85
2024/04/05 05:49:17;;;;;;;0.20;0.20;;;11.30;99.90;;;;;;4298616;33;20129;-85
2024/04/05 05:51:43;;;;;;;0.30;0.30;;;11.30;99.90;;;;;;4300312;33;20470;-85
2024/04/05 05:54:09;;;;;;;0.40;0.40;;;11.30;99.90;;;;;;4300757;33;20548;-86
2024/04/05 05:56:35;;;;;;;0.40;0.40;;;11.30;99.90;;;;;;4300989;33;20084;-85
2024/04/05 05:59:01;;;;;;;0.40;0.40;;;11.30;99.90;;;;;;4302195;33;20129;-86
2024/04/05 06:01:26;;;;;;;0.30;0.30;;;11.40;99.90;;;;;;4301132;33;20464;-85
2024/04/05 06:03:52;;;;;;;3.33;0.62;;;11.40;99.90;;;;;;4300473;33;20100;-86
2024/04/05 06:06:18;;;;;;;0.30;0.30;;;11.40;99.90;;;;;;4303403;33;20123;-86
2024/04/05 06:08:47;;;;;;;1.87;1.15;;;11.40;99.90;;;;;;4299963;33;20132;-84
2024/04/05 06:11:12;;;;;;;0.30;0.30;;;11.40;99.90;;;;;;4300872;33;20064;-86
2024/04/05 06:13:38;;;;;;;0.50;0.50;;;11.50;99.90;;;;;;4301867;33;20160;-85
2024/04/05 06:16:05;;;;;;;1.33;0.60;;;11.50;99.90;;;;;;4298552;33;20076;-85
2024/04/05 06:18:30;;;;;;;0.60;0.60;;;11.60;99.90;;;;;;4299473;33;20144;-84
2024/04/05 06:20:59;;;;;;;0.30;0.30;;;11.60;99.90;;;;;;4299866;33;20084;-85
2024/04/05 06:23:25;;;;;;;0.40;0.40;;;11.70;99.90;;;;;;4299796;33;20068;-86
2024/04/05 06:25:58;;;;;;;1.35;1.02;;;11.90;99.90;;;;;;4301503;33;20106;-86
2024/04/05 06:28:24;;;;;;;0.37;0.37;;;12.00;99.90;;;;;;4300217;33;20072;-86
2024/04/05 06:30:50;;;;;;;0.57;0.57;;;12.10;99.90;;;;;;4299988;33;20540;-86
2024/04/05 06:33:16;;;;;;;0.40;0.40;;;12.20;99.90;;;;;;4302612;33;20574;-86
2024/04/05 06:35:42;;;;;;;2.05;0.80;;;12.30;99.90;;;;;;4296872;33;20129;-86
2024/04/05 06:38:08;;;;;;;0.37;0.37;;;12.40;99.90;;;;;;4299812;33;20069;-85
2024/04/05 06:40:35;;;;;;;0.43;0.43;;;12.50;99.90;;;;;;4297310;33;20080;-85
2024/04/05 06:43:02;;;;;;;14.15;0.62;;;12.40;99.90;;;;;;4299568;33;20068;-84
2024/04/05 06:45:27;;;;;;;4.03;0.95;;;12.40;99.90;;;;;;4297470;33;20060;-85
2024/04/05 06:47:55;;;;;;;0.70;0.70;;;12.50;99.90;;;;;;4298642;33;20103;-86
2024/04/05 06:50:22;;;;;;;0.85;0.85;;;12.50;99.90;;;;;;4299794;33;20080;-85
2024/04/05 06:52:49;;;;;;;0.40;0.40;;;12.50;99.90;;;;;;4301954;33;20076;-85
2024/04/05 06:55:14;;;;;;;0.50;0.50;;;12.50;99.90;;;;;;4300114;33;20076;-86
2024/04/05 06:57:40;;;;;;;0.70;0.70;;;12.60;99.90;;;;;;4298624;33;20536;-85
2024/04/05 07:02:35;;;;;;;0.40;0.40;;;12.70;99.90;;;;;;4298917;33;20088;-85
2024/04/05 07:05:01;;;;;;;0.50;0.50;;;12.80;99.90;;;;;;4298701;33;20129;-85
2024/04/05 07:07:26;;;;;;;0.40;0.40;;;12.80;99.90;;;;;;4291995;33;20097;-85
2024/04/05 07:09:52;;;;;;;0.50;0.50;;;13.00;99.90;;;;;;4287168;33;20064;-84
2024/04/05 07:12:18;;;;;;;0.68;0.68;;;13.10;99.90;;;;;;4296488;33;20466;-85
2024/04/05 07:14:44;;;;;;;0.90;0.50;;;13.20;99.90;;;;;;4298527;33;20092;-85
2024/04/05 07:17:11;;;;;;;2.03;0.98;;;13.30;99.90;;;;;;4299392;33;20069;-84
2024/04/05 07:19:37;;;;;;;0.37;0.37;;;13.40;99.90;;;;;;4302008;33;20537;-85
2024/04/05 07:22:03;;;;;;;0.30;0.30;;;13.50;99.90;;;;;;4300837;33;20088;-85
2024/04/05 07:24:28;;;;;;;1.02;0.88;;;13.50;99.90;;;;;;4299008;33;20068;-86
2024/04/05 07:26:54;;;;;;;0.75;0.68;;;13.50;99.90;;;;;;4302491;33;20157;-85
2024/04/05 07:29:20;;;;;;;0.30;0.30;;;13.60;99.90;;;;;;4299658;33;20080;-85
2024/04/05 07:31:48;;;;;;;10.32;0.68;;;13.70;99.90;;;;;;4299517;33;20084;-84
2024/04/05 07:34:13;;;;;;;12.60;0.65;;;13.80;99.90;;;;;;4300434;33;20146;-84
2024/04/05 07:36:39;;;;;;;0.52;0.52;;;13.80;99.90;;;;;;4301691;33;20512;-84
2024/04/05 07:39:05;;;;;;;1.00;0.93;;;13.80;99.90;;;;;;4298493;33;20093;-85
2024/04/05 07:41:30;;;;;;;0.32;0.32;;;13.90;99.90;;;;;;4298716;33;20081;-84
2024/04/05 07:43:56;;;;;;;0.40;0.40;;;14.00;99.90;;;;;;4298819;33;20577;-85
2024/04/05 07:46:21;;;;;;;0.40;0.40;;;14.00;99.90;;;;;;4297295;33;20466;-84
2024/04/05 07:48:48;;;;;;;0.80;0.80;;;14.00;99.90;;;;;;4299942;33;20080;-85
2024/04/05 07:51:13;;;;;;;1.65;1.02;;;14.00;99.90;;;;;;4297680;33;20093;-85
2024/04/05 07:53:39;;;;;;;0.43;0.43;;;13.90;99.90;;;;;;4297213;33;20064;-84
2024/04/05 07:56:05;;;;;;;0.30;0.30;;;13.90;99.90;;;;;;4298361;33;20405;-84
2024/04/05 07:58:31;;;;;;;0.40;0.40;;;14.00;99.90;;;;;;4296313;33;20080;-84
2024/04/05 08:00:56;;;;;;;0.68;0.45;;;14.00;99.90;;;;;;4297040;33;20087;-84
2024/04/05 08:03:23;;;;;;;0.50;0.50;;;14.00;99.90;;;;;;4303106;33;20508;-85
2024/04/05 08:05:48;;;;;;;0.43;0.43;;;14.20;99.90;;;;;;4299734;33;20147;-85
2024/04/05 08:08:14;;;;;;;0.40;0.40;;;14.20;99.90;;;;;;4295983;33;20128;-85
2024/04/05 08:10:40;;;;;;;1.00;0.90;;;14.20;99.90;;;;;;4298347;33;20100;-85
2024/04/05 08:13:07;;;;;;;1.35;0.82;;;14.30;99.90;;;;;;4298367;33;20080;-85
2024/04/05 08:15:33;;;;;;;1.35;1.25;;;14.40;99.90;;;;;;4300360;33;20093;-84
2024/04/05 08:17:59;;;;;;;0.50;0.50;;;14.40;99.90;;;;;;4298551;33;20072;-84
2024/04/05 08:20:25;;;;;;;0.30;0.30;;;14.50;99.90;;;;;;4297830;33;20084;-84
2024/04/05 08:22:51;;;;;;;4.70;0.65;;;14.50;99.90;;;;;;4299144;33;20121;-85
2024/04/05 08:25:16;;;;;;;0.95;0.95;;;14.50;99.90;;;;;;4299420;33;20140;-84
2024/04/05 08:27:47;;;;;;;4.47;1.12;;;14.50;99.90;;;;;;4298742;33;20301;-86
2024/04/05 08:30:18;;;;;;;0.40;0.40;;;14.50;99.90;;;;;;4296771;33;20084;-84
2024/04/05 08:32:44;;;;;;;0.65;0.65;;;14.70;99.90;;;;;;4298734;33;20101;-86
2024/04/05 08:35:10;;;;;;;0.40;0.40;;;14.80;99.90;;;;;;4297612;33;20073;-84
2024/04/05 08:37:38;;;;;;;0.40;0.40;;;14.90;99.90;;;;;;4300029;33;20820;-85
2024/04/05 08:40:05;;;;;;;1.52;0.60;;;14.90;99.90;;;;;;4297221;33;20169;-86
2024/04/05 08:42:32;;;;;;;0.30;0.30;;;14.80;99.90;;;;;;4306138;33;20072;-84
2024/04/05 08:44:58;;;;;;;3.25;0.82;;;14.80;99.90;;;;;;4308429;33;20096;-85
2024/04/05 08:47:25;;;;;;;1.55;0.65;;;14.90;99.90;;;;;;4313236;33;20069;-84
2024/04/05 08:49:54;;;;;;;1.20;0.60;;;14.90;99.90;;;;;;4312031;33;20484;-83
2024/04/05 08:52:19;;;;;;;0.37;0.37;;;15.00;99.90;;;;;;4312298;33;20429;-86
2024/04/05 08:54:45;;;;;;;0.40;0.40;;;15.00;99.90;;;;;;4309128;33;20065;-85
2024/04/05 08:57:12;;;;;;;2.83;1.45;;;15.10;99.90;;;;;;4311139;33;20081;-85
2024/04/05 08:59:39;;;;;;;0.40;0.40;;;15.30;99.90;;;;;;4303254;33;20064;-86
2024/04/05 09:02:09;;;;;;;0.47;0.47;;;15.40;99.90;;;;;;4300938;33;20519;-84
2024/04/05 09:04:36;;;;;;;1.08;1.00;;;15.50;99.90;;;;;;4300556;33;20076;-85
2024/04/05 09:07:04;;;;;;;0.35;0.35;;;15.70;99.90;;;;;;4302274;33;20466;-84
2024/04/05 09:09:31;;;;;;;0.65;0.65;;;15.70;99.90;;;;;;4299386;33;20592;-85
2024/04/05 09:12:03;;;;;;;2.17;1.58;;;15.80;99.90;;;;;;4301821;33;20080;-86
2024/04/05 09:14:29;;;;;;;0.40;0.40;;;15.90;99.90;;;;;;4301990;33;20132;-85
2024/04/05 09:16:58;;;;;;;0.50;0.50;;;16.10;99.90;;;;;;4300517;33;20080;-86
2024/04/05 09:19:23;;;;;;;0.52;0.52;;;16.20;99.90;;;;;;4300431;33;20088;-85
2024/04/05 09:21:50;;;;;;;0.52;0.52;;;16.30;99.90;;;;;;4301429;33;20143;-85
2024/04/05 09:24:16;;;;;;;0.40;0.40;;;16.30;99.90;;;;;;4302083;33;20076;-87
2024/04/05 09:26:43;;;;;;;3.37;1.52;;;16.10;99.90;;;;;;4303341;33;20117;-84
2024/04/05 09:29:12;;;;;;;0.50;0.50;;;16.00;99.90;;;;;;4300563;33;20108;-85
2024/04/05 09:31:38;;;;;;;0.40;0.40;;;15.80;99.90;;;;;;4299762;33;20127;-85
2024/04/05 09:34:07;;;;;;;0.30;0.30;;;15.80;99.90;;;;;;4303817;33;20127;-84
2024/04/05 09:36:36;;;;;;;0.30;0.30;;;15.80;99.90;;;;;;4301194;33;20068;-85
2024/04/05 09:39:06;;;;;;;1.23;0.80;;;15.70;99.90;;;;;;4301755;33;20085;-85
2024/04/05 09:41:33;;;;;;;0.30;0.30;;;15.60;99.90;;;;;;4302298;33;20121;-85
2024/04/05 09:44:03;;;;;;;0.57;0.57;;;15.60;99.90;;;;;;4300756;33;20555;-85
2024/04/05 09:46:28;;;;;;;0.30;0.30;;;15.60;99.90;;;;;;4302540;33;20123;-87
2024/04/05 09:48:55;;;;;;;0.52;0.52;;;15.60;99.90;;;;;;4299400;33;20417;-85
2024/04/05 09:51:26;;;;;;;0.50;0.50;;;15.60;99.90;;;;;;4301753;33;20076;-85
2024/04/05 09:53:52;;;;;;;;;;;15.70;99.90;;;;;;4298372;33;20073;-85
2024/04/05 09:56:18;;;;;;;7.32;2.12;;;15.70;99.90;;;;;;4301242;33;20423;-84
2024/04/05 09:58:47;;;;;;;0.37;0.37;;;15.70;99.90;;;;;;4301425;33;20071;-85
2024/04/05 10:01:15;;;;;;;5.53;1.75;;;15.70;99.90;;;;;;4299913;33;20547;-85
2024/04/05 10:03:42;;;;;;;2.35;0.62;;;15.70;99.90;;;;;;4301126;33;20072;-85
2024/04/05 10:06:12;;;;;;;0.47;0.47;;;15.90;99.90;;;;;;4299448;33;20515;-85
2024/04/05 10:08:39;;;;;;;0.45;0.45;;;16.10;99.90;;;;;;4300902;33;20075;-86
2024/04/05 10:11:25;;;;;;;0.85;0.85;;;16.30;99.90;;;;;;4299863;33;20077;-85
2024/04/05 10:14:00;;;;;;;0.93;0.65;;;16.70;99.90;;;;;;4297959;33;20064;-85
2024/04/05 10:16:28;;;;;;;1.33;0.85;;;16.80;99.90;;;;;;4298947;33;21044;-85
2024/04/05 10:18:53;;;;;;;0.40;0.40;;;16.80;99.90;;;;;;4299139;33;20763;-86
2024/04/05 10:21:19;;;;;;;0.47;0.47;;;16.90;99.90;;;;;;4300365;33;20092;-86
2024/04/05 10:23:44;;;;;;;1.02;0.50;;;17.20;99.90;;;;;;4296460;33;20141;-86
2024/04/05 10:26:13;;;;;;;1.12;1.05;;;17.00;99.90;;;;;;4300701;33;20084;-86
2024/04/05 10:28:42;;;;;;;0.30;0.30;;;17.00;99.90;;;;;;4300603;33;20546;-86
2024/04/05 10:31:10;;;;;;;0.47;0.47;;;17.00;99.90;;;;;;4298364;33;20394;-86
2024/04/05 10:33:39;;;;;;;0.62;0.62;;;17.40;99.90;;;;;;4298042;33;20068;-86
2024/04/05 10:36:05;;;;;;;0.65;0.62;;;17.50;99.90;;;;;;4301456;33;20567;-86
2024/04/05 10:38:31;;;;;;;1.00;0.65;;;17.50;99.90;;;;;;4299699;33;20134;-86
2024/04/05 10:40:59;;;;;;;0.68;0.68;;;17.70;99.90;;;;;;4298694;33;20091;-86
2024/04/05 10:43:25;;;;;;;0.60;0.60;;;17.70;99.90;;;;;;4298516;33;20067;-86
2024/04/05 10:45:54;;;;;;;8.00;0.60;;;18.00;99.90;;;;;;4299531;33;20768;-86
2024/04/05 10:48:22;;;;;;;0.98;0.88;;;18.00;99.90;;;;;;4300664;33;20312;-86
2024/04/05 10:50:48;;;;;;;1.87;0.75;;;17.80;99.90;;;;;;4300777;33;20460;-87
2024/04/05 10:53:16;;;;;;;1.65;0.95;;;17.70;99.90;;;;;;4299883;33;20084;-86
2024/04/05 10:55:43;;;;;;;1.45;0.62;;;17.80;99.90;;;;;;4298303;33;20084;-86
2024/04/05 10:58:11;;;;;;;0.50;0.50;;;18.00;99.90;;;;;;4300720;33;20068;-86
2024/04/05 11:00:37;;;;;;;0.45;0.45;;;18.50;99.90;;;;;;4299255;33;20554;-86
2024/04/05 11:03:04;;;;;;;1.65;1.05;;;18.90;99.90;;;;;;4300629;33;20108;-86
2024/04/05 11:05:32;;;;;;;0.20;0.20;;;18.80;99.90;;;;;;4299779;33;20072;-86
2024/04/05 11:07:59;;;;;;;0.40;0.40;;;18.90;99.90;;;;;;4300930;33;20073;-87
2024/04/05 11:10:29;;;;;;;9.95;0.70;;;19.50;99.90;;;;;;4301342;33;20519;-86
2024/04/05 11:12:55;;;;;;;1.08;0.43;;;19.50;99.90;;;;;;4298187;33;20196;-84
2024/04/05 11:15:22;;;;;;;0.40;0.40;;;19.80;99.90;;;;;;4299804;33;20673;-86
2024/04/05 11:18:05;;;;;;;0.40;0.40;;;20.00;99.90;;;;;;4299764;33;20149;-87
2024/04/05 11:20:33;;;;;;;2.60;1.02;;;19.90;99.90;;;;;;4299114;33;20544;-85
2024/04/05 11:23:06;;;;;;;0.40;0.40;;;20.10;99.90;;;;;;4300318;33;20088;-87
2024/04/05 11:25:32;;;;;;;5.85;0.82;;;20.30;99.90;;;;;;4302155;33;20084;-87
2024/04/05 11:28:09;;;;;;;0.30;0.30;;;20.00;99.90;;;;;;4298590;33;20072;-87
2024/04/05 11:30:39;;;;;;;0.43;0.43;;;20.10;99.90;;;;;;4286593;33;20088;-83
2024/04/05 11:33:05;;;;;;;2.47;0.53;;;20.10;99.90;;;;;;4298749;33;20133;-87
2024/04/05 11:35:30;;;;;;;1.33;0.98;;;19.80;99.90;;;;;;4297251;33;20504;-87
2024/04/05 11:37:56;;;;;;;1.48;0.80;;;19.30;99.90;;;;;;4299637;33;20827;-86
2024/04/05 11:40:22;;;;;;;0.47;0.47;;;19.00;99.90;;;;;;4301473;33;20188;-85
2024/04/05 11:42:48;;;;;;;0.20;0.20;;;18.60;99.90;;;;;;4298769;33;20076;-86
2024/04/05 11:45:14;;;;;;;6.32;1.37;;;18.40;99.90;;;;;;4298832;33;20445;-86
2024/04/05 11:47:40;;;;;;;0.77;0.77;;;18.60;99.90;;;;;;4300310;33;20060;-86
2024/04/05 11:50:07;;;;;;;0.45;0.45;;;18.70;99.90;;;;;;4300139;33;20071;-87
2024/04/05 11:55:03;;;;;;;0.47;0.47;;;19.00;99.90;;;;;;4462044;32;99166;-63
2024/04/05 11:57:28;;;;;;;0.80;0.57;;;19.70;99.90;;;;;;4457203;32;20069;-63
2024/04/05 11:59:54;;;;;;;0.52;0.52;;;20.10;99.90;;;;;;4459029;32;20482;-63
2024/04/05 12:02:19;;;;;;;0.20;0.20;;;20.70;99.90;;;;;;4459043;32;20077;-63
2024/04/05 12:04:46;;;;;;;1.08;0.50;;;20.70;99.90;;;;;;4456047;32;20077;-65
2024/04/05 12:07:12;;;;;;;0.50;0.50;;;20.90;99.90;;;;;;4459684;32;20069;-65
2024/04/05 12:09:38;;;;;;;2.42;0.47;;;21.20;99.90;;;;;;4458368;32;20127;-62
2024/04/05 12:12:04;;;;;;;0.20;0.20;;;21.30;99.90;;;;;;4458006;32;20536;-62
2024/04/05 12:14:32;;;;;;;0.25;0.25;;;21.60;99.90;;;;;;4457395;32;20522;-64
2024/04/05 12:16:59;;;;;;;0.35;0.35;;;21.20;99.90;;;;;;4461226;32;20080;-64
2024/04/05 12:19:24;;;;;;;0.25;0.25;;;20.80;99.90;;;;;;4457362;32;20129;-63
2024/04/05 12:21:49;;;;;;;0.30;0.30;;;20.70;99.90;;;;;;4455783;32;20072;-64
2024/04/05 12:24:15;;;;;;;0.50;0.50;;;20.90;99.90;;;;;;4459068;32;20113;-63
2024/04/05 12:26:40;;;;;;;0.20;0.20;;;21.00;99.90;;;;;;4458177;32;20068;-63
2024/04/05 12:29:07;;;;;;;0.20;0.20;;;21.30;99.90;;;;;;4457612;32;20527;-64
2024/04/05 12:31:32;;;;;;;0.20;0.20;;;21.80;99.90;;;;;;4458487;32;20172;-63
2024/04/05 12:33:58;;;;;;;0.10;0.10;;;21.80;99.90;;;;;;4458234;32;20575;-63
2024/04/05 12:36:23;;;;;;;0.37;0.37;;;21.50;99.90;;;;;;4457939;32;20122;-63
2024/04/05 12:38:56;;;;;;;9.10;0.73;;;21.30;99.90;;;;;;4454081;32;20763;-63
2024/04/05 12:41:23;;;;;;;0.22;0.22;;;21.30;99.90;;;;;;4456949;32;20061;-64
2024/04/05 12:43:49;;;;;;;0.30;0.30;;;21.20;99.90;;;;;;4455605;32;20065;-64
2024/04/05 12:46:15;;;;;;;1.15;0.40;;;21.50;99.90;;;;;;4462627;32;20906;-64
2024/04/05 12:48:41;;;;;;;1.58;0.43;;;21.60;99.90;;;;;;4455542;32;20122;-64